Pagina principale
METAR-TAF:

METAR-TAF

Aeroporti :

Zanjan, Iran

latitudine: 36-41N, longitudine: 048-29E, altezza: 1663 m

Osservazione

Il bollettino è stato emesso 59 minuti fa, alle 04:00 UTC
Vento 6 kt da ovest
Temperature 22°C
Umidità 31%
Pressione 1017 hPa
Visibilità 10 km o più
nessuna nube inferiore a 1500 m e nessun cumulonembo

METAR: OITZ 180400Z 26006KT CAVOK 22/04 Q1017

Ora: 09:29 (04:59 UTC)


TAF: mancante

Osservazioni e previsioni meteorologiche di più di 4000 aeroporti (messaggi METAR e TAF).

Le stazioni disponibili sono rappresentate dai dischi gialli e rossi sulla carta.

Puntare il mouse per vedere il nome della stazione.

Clicca sopra per visualizzare le osservazioni e previsioni meteorologiche.

Per cambiare la mappa : fare clic sui pulsanti verdi con una croce nera per ingrandire, il pulsante verde con un trattino per diminuire, o sulla freccia verde per le mappe adiacenti.


METAR-TAF: